Kalona, IA (52247)

9:14 PM CDT on August 29, 2014 (GMT -0500)
Downtown Kalona | Change Station
CLOSE
Current Station
Personal Weather Station
Location: Kalona, IA
Elevation: 664 ft
Nearby Weather Stations

Elev 664 ft 41.48 °N, 91.71 °W | Updated 57 seconds ago

Rain
Rain
71.8 °F
Feels Like 71.8 °F
N
0.0
Wind Variable Wind from North
Gusts 0.0 mph

Today
High -- | Low -- °F
--% Chance of Precip.
Yesterday
High -- | Low -- °F
Precip. -- in
6:29 AM 7:44 PM
Waxing Crescent, 18% visible
Pressure 29.79 in
Visibility 10.0 miles
Clouds Few 4200 ft
Scattered Clouds 4800 ft
Overcast 6500 ft
Dew Point 69 °F
Humidity 90%
Rainfall 0.00 in
Snow Depth Not available.
UV 0 out of 12
Pollen 5.10 out of 12
Air Quality Not available.
Flu Activity Not available.
METAR KIOW 300152Z AUTO 16004KT 10SM FEW042 SCT048 OVC065 22/21 A2980 RMK AO2 SLP086 T02220211

More Conditions Fewer Conditions

Pressure 29.79 in
Visibility 10.0 miles
Clouds Few 4200 ft
Scattered Clouds 4800 ft
Overcast 6500 ft
Dew Point 69 °F
Humidity 90%
Rainfall 0.00 in
Snow Depth Not available.
UV 0 out of 12
Pollen 5.10 out of 12
Air Quality Not available.
Flu Activity Not available.
METAR KIOW 300152Z AUTO 16004KT 10SM FEW042 SCT048 OVC065 22/21 A2980 RMK AO2 SLP086 T02220211

More Conditions Fewer Conditions

10-Day Weather Forecast

Almanac

Astronomy

Aug. 29, 2014 Rise Set
Actual Time 6:29 AM CDT 7:44 PM CDT
Civil Twilight 6:01 AM CDT 8:13 PM CDT
Nautical Twilight 5:26 AM CDT 8:47 PM CDT
Astronomical Twilight 4:50 AM CDT 9:23 PM CDT
Moon 10:23 AM CDT (8/29) 9:39 PM CDT (8/29)
Length of Visible Light 14h 12m
Length of Day
13h 14m
Tomorrow will be 2m 38s shorter.
Waxing Crescent, 18% of the Moon is Illuminated
Today
Waxing Crescent
Sep 2
First Quarter
Sep 8
Full
Sep 15
Last Quarter
Sep 24
New

Today's Extremes

State Highs State Lows

Community

WunderPhotos

Upload Photos

1,748,405 photos uploaded!

Nearby

Snow Depth

Station Depth Elevation
No new snow has been reported.

Earthquake Activity

City Distance Mag. Time & Date
No recent earthquake activity has been reported nearby.
Minimum magnitude displayed is 2.5.

Coastal Water Temperatures

Place Temperature
No Stations Reporting

Nearby Weather Stations